createdAt,value
2022-08-16T00:02:12.840Z,100555.09
2022-08-16T00:04:40.166Z,100558.00
2022-08-16T00:07:06.539Z,100560.78
2022-08-16T00:09:33.080Z,100558.81
2022-08-16T00:12:02.735Z,100568.34
2022-08-16T00:14:33.063Z,100567.16
2022-08-16T00:17:15.872Z,100568.91
2022-08-16T00:19:45.922Z,100567.75
2022-08-16T00:22:13.499Z,100560.84
2022-08-16T00:24:41.837Z,100562.34
2022-08-16T00:27:13.215Z,100557.91
2022-08-16T00:29:39.611Z,100561.03
2022-08-16T00:32:08.611Z,100562.75
2022-08-16T00:34:43.601Z,100566.22
2022-08-16T00:37:20.267Z,100569.59
2022-08-16T00:39:48.015Z,100578.41
2022-08-16T00:42:29.550Z,100572.16
2022-08-16T00:45:06.386Z,100572.97
2022-08-16T00:47:36.881Z,100569.34
2022-08-16T00:50:05.193Z,100564.69
2022-08-16T00:52:38.441Z,100562.91
2022-08-16T00:55:12.396Z,100566.84
2022-08-16T00:57:59.117Z,100565.91
2022-08-16T01:00:28.731Z,100572.28
2022-08-16T01:02:57.591Z,100573.31
2022-08-16T01:05:25.380Z,100574.44
2022-08-16T01:07:53.569Z,100574.06
2022-08-16T01:10:31.955Z,100576.16
2022-08-16T01:13:12.131Z,100571.88
2022-08-16T01:15:47.259Z,100574.75
2022-08-16T01:18:40.761Z,100569.22
2022-08-16T01:21:22.959Z,100563.31
2022-08-16T01:24:51.688Z,100565.63
2022-08-16T01:27:09.190Z,100569.16
2022-08-16T01:29:58.473Z,100570.66
2022-08-16T01:32:31.862Z,100568.44
2022-08-16T01:35:00.799Z,100578.75
2022-08-16T01:37:27.587Z,100574.09
2022-08-16T01:40:07.202Z,100577.78
2022-08-16T01:42:34.027Z,100572.06
2022-08-16T01:45:00.612Z,100567.31
2022-08-16T01:47:28.115Z,100566.53
2022-08-16T01:51:05.106Z,100562.09
2022-08-16T01:52:46.555Z,100567.63
2022-08-16T01:55:13.151Z,100564.81
2022-08-16T01:57:41.101Z,100565.94
2022-08-16T02:00:20.701Z,100559.38
2022-08-16T02:02:56.315Z,100565.00
2022-08-16T02:05:23.641Z,100565.22
2022-08-16T02:07:52.084Z,100564.41
2022-08-16T02:10:18.782Z,100570.78
2022-08-16T02:12:51.180Z,100565.47
2022-08-16T02:15:26.538Z,100570.19
2022-08-16T02:17:55.144Z,100561.81
2022-08-16T02:20:26.494Z,100564.72
2022-08-16T02:22:55.769Z,100564.31
2022-08-16T02:25:22.541Z,100565.00
2022-08-16T02:27:51.151Z,100569.91
2022-08-16T02:30:37.095Z,100555.56
2022-08-16T02:33:10.735Z,100562.56
2022-08-16T02:35:54.607Z,100559.31
2022-08-16T02:38:22.739Z,100553.81
2022-08-16T02:40:50.326Z,100549.28
2022-08-16T02:43:17.151Z,100548.91
2022-08-16T02:45:43.673Z,100550.97
2022-08-16T02:48:30.270Z,100552.03
2022-08-16T02:51:06.452Z,100548.78
2022-08-16T02:53:41.494Z,100554.72
2022-08-16T02:56:11.167Z,100565.06
2022-08-16T02:58:38.420Z,100556.31
2022-08-16T03:01:07.132Z,100557.94
2022-08-16T03:04:41.159Z,100553.47
2022-08-16T03:06:42.512Z,100554.28
2022-08-16T03:09:13.549Z,100559.47
2022-08-16T03:11:41.040Z,100550.88
2022-08-16T03:14:07.787Z,100547.59
2022-08-16T03:16:42.388Z,100553.75
2022-08-16T03:19:21.596Z,100562.53
2022-08-16T03:21:49.351Z,100551.28
2022-08-16T03:24:28.184Z,100549.88
2022-08-16T03:27:02.910Z,100550.69
2022-08-16T03:29:32.836Z,100551.94
2022-08-16T03:32:01.777Z,100552.78
2022-08-16T03:34:29.759Z,100550.56
2022-08-16T03:36:57.402Z,100554.03
2022-08-16T03:39:24.527Z,100557.50
2022-08-16T03:41:59.817Z,100550.16
2022-08-16T03:44:44.592Z,100551.38
2022-08-16T03:47:13.685Z,100561.63
2022-08-16T03:49:47.898Z,100557.56
2022-08-16T03:52:18.909Z,100551.03
2022-08-16T03:54:53.468Z,100550.81
2022-08-16T03:57:24.673Z,100554.72
2022-08-16T03:59:59.131Z,100548.00
2022-08-16T04:02:31.480Z,100571.16
2022-08-16T04:04:58.159Z,100559.50
2022-08-16T04:07:25.247Z,100568.72
2022-08-16T04:09:52.407Z,100564.47
2022-08-16T04:12:53.274Z,100570.00
2022-08-16T04:15:08.807Z,100582.03
2022-08-16T04:17:36.753Z,100580.03
2022-08-16T04:20:23.676Z,100583.88
2022-08-16T04:22:55.732Z,100588.19
2022-08-16T04:25:22.848Z,100588.00
2022-08-16T04:27:54.288Z,100597.63
2022-08-16T04:30:32.319Z,100594.38
2022-08-16T04:33:01.996Z,100602.53
2022-08-16T04:35:34.299Z,100601.09
2022-08-16T04:38:00.984Z,100609.06
2022-08-16T04:40:37.266Z,100614.84
2022-08-16T04:43:03.987Z,100625.28
2022-08-16T04:45:36.216Z,100625.03
2022-08-16T04:48:04.157Z,100625.47
2022-08-16T04:50:30.723Z,100629.13
2022-08-16T04:52:59.137Z,100629.38
2022-08-16T04:55:31.675Z,100624.66
2022-08-16T04:58:03.929Z,100624.84
2022-08-16T05:00:50.375Z,100625.47
2022-08-16T05:03:16.876Z,100628.75
2022-08-16T05:05:59.037Z,100630.16
2022-08-16T05:08:31.537Z,100627.50
2022-08-16T05:11:00.559Z,100633.63
2022-08-16T05:13:40.043Z,100633.19
2022-08-16T05:16:16.690Z,100626.22
2022-08-16T05:18:47.253Z,100626.22
2022-08-16T05:21:13.878Z,100632.75
2022-08-16T05:23:40.897Z,100647.50
2022-08-16T05:26:19.565Z,100637.84
2022-08-16T05:28:55.625Z,100633.34
2022-08-16T05:31:23.823Z,100637.44
2022-08-16T05:33:56.263Z,100639.47
2022-08-16T05:36:22.620Z,100637.00
2022-08-16T05:38:49.091Z,100641.13
2022-08-16T05:41:16.977Z,100638.03
2022-08-16T05:43:46.741Z,100645.63
2022-08-16T05:46:28.686Z,100644.16
2022-08-16T05:49:03.704Z,100646.19
2022-08-16T05:51:35.802Z,100642.06
2022-08-16T05:54:07.507Z,100647.13
2022-08-16T05:56:36.017Z,100649.13
2022-08-16T05:59:06.415Z,100649.13
2022-08-16T06:01:38.027Z,100636.56
2022-08-16T06:04:05.564Z,100639.41
2022-08-16T06:06:43.559Z,100641.00
2022-08-16T06:09:22.411Z,100644.06
2022-08-16T06:11:49.357Z,100657.38
2022-08-16T06:14:17.359Z,100651.59
2022-08-16T06:16:44.510Z,100650.31
2022-08-16T06:19:17.195Z,100656.63
2022-08-16T06:21:43.942Z,100662.34
2022-08-16T06:24:54.065Z,100668.91
2022-08-16T06:26:58.205Z,100664.19
2022-08-16T06:29:24.878Z,100666.41
2022-08-16T06:31:51.781Z,100663.69
2022-08-16T06:34:53.242Z,100667.78
2022-08-16T06:37:05.121Z,100668.53
2022-08-16T06:39:34.565Z,100664.41
2022-08-16T06:42:18.334Z,100662.72
2022-08-16T06:44:45.842Z,100668.19
2022-08-16T06:47:16.961Z,100669.56
2022-08-16T06:49:52.536Z,100661.72
2022-08-16T06:52:58.354Z,100666.16
2022-08-16T06:55:08.248Z,100663.63
2022-08-16T06:57:40.655Z,100670.41
2022-08-16T07:00:24.192Z,100668.72
2022-08-16T07:02:53.657Z,100669.91
2022-08-16T07:05:21.099Z,100668.84
2022-08-16T07:07:54.239Z,100669.00
2022-08-16T07:10:26.680Z,100674.06
2022-08-16T07:12:56.735Z,100673.63
2022-08-16T07:15:31.850Z,100680.28
2022-08-16T07:17:59.870Z,100681.47
2022-08-16T07:20:35.081Z,100684.88
2022-08-16T07:23:02.746Z,100692.69
2022-08-16T07:25:40.475Z,100696.53
2022-08-16T07:28:07.037Z,100686.00
2022-08-16T07:30:46.335Z,100699.84
2022-08-16T07:33:16.322Z,100699.63
2022-08-16T07:35:49.440Z,100694.78
2022-08-16T07:38:19.769Z,100702.16
2022-08-16T07:40:59.567Z,100693.06
2022-08-16T07:43:29.352Z,100705.66
2022-08-16T07:45:56.541Z,100708.06
2022-08-16T07:48:24.125Z,100707.41
2022-08-16T07:50:56.041Z,100703.22
2022-08-16T07:53:29.042Z,100701.94
2022-08-16T07:55:55.656Z,100711.72
2022-08-16T07:58:34.198Z,100717.44
2022-08-16T08:01:10.717Z,100714.56
2022-08-16T08:03:49.074Z,100720.16
2022-08-16T08:06:21.212Z,100715.97
2022-08-16T08:08:57.372Z,100719.94
2022-08-16T08:11:28.375Z,100728.56
2022-08-16T08:13:55.407Z,100722.66
2022-08-16T08:16:30.501Z,100723.50
2022-08-16T08:19:00.880Z,100724.28
2022-08-16T08:21:59.807Z,100723.00
2022-08-16T08:24:15.353Z,100721.91
2022-08-16T08:26:42.977Z,100726.94
2022-08-16T08:29:09.763Z,100729.63
2022-08-16T08:31:41.179Z,100735.50
2022-08-16T08:34:07.999Z,100732.19
2022-08-16T08:36:38.200Z,100734.88
2022-08-16T08:39:12.725Z,100741.78
2022-08-16T08:41:41.511Z,100732.19
2022-08-16T08:44:27.875Z,100736.94
2022-08-16T08:47:00.362Z,100733.56
2022-08-16T08:49:46.688Z,100724.94
2022-08-16T08:52:35.165Z,100727.81
2022-08-16T08:55:09.532Z,100723.94
2022-08-16T08:57:41.580Z,100726.69
2022-08-16T09:00:13.884Z,100731.84
2022-08-16T09:02:45.511Z,100739.97
2022-08-16T09:05:14.858Z,100739.50
2022-08-16T09:08:00.172Z,100736.38
2022-08-16T09:10:29.350Z,100739.41
2022-08-16T09:12:56.331Z,100744.03
2022-08-16T09:15:23.814Z,100740.31
2022-08-16T09:17:54.602Z,100732.09
2022-08-16T09:20:23.702Z,100731.63
2022-08-16T09:22:52.444Z,100750.00
2022-08-16T09:25:26.204Z,100754.91
2022-08-16T09:28:02.206Z,100742.00
2022-08-16T09:30:36.076Z,100742.63
2022-08-16T09:33:11.140Z,100740.72
2022-08-16T09:35:39.019Z,100740.47
2022-08-16T09:38:08.475Z,100738.59
2022-08-16T09:40:43.736Z,100742.66
2022-08-16T09:43:46.468Z,100740.22
2022-08-16T09:45:58.878Z,100741.06
2022-08-16T09:48:36.852Z,100732.97
2022-08-16T09:51:12.700Z,100740.28
2022-08-16T09:53:39.691Z,100745.63
2022-08-16T09:56:19.728Z,100743.47
2022-08-16T09:59:04.929Z,100748.88
2022-08-16T10:01:36.370Z,100746.19
2022-08-16T10:04:04.678Z,100743.50
2022-08-16T10:06:34.220Z,100747.25
2022-08-16T10:09:05.934Z,100735.34
2022-08-16T10:11:53.245Z,100745.31
2022-08-16T10:14:20.098Z,100742.00
2022-08-16T10:16:51.452Z,100748.44
2022-08-16T10:19:27.852Z,100746.03
2022-08-16T10:21:56.315Z,100741.97
2022-08-16T10:24:28.563Z,100747.63
2022-08-16T10:27:20.232Z,100746.31
2022-08-16T10:30:00.317Z,100745.75
2022-08-16T10:32:30.653Z,100752.38
2022-08-16T10:34:58.936Z,100746.63
2022-08-16T10:37:32.187Z,100756.00
2022-08-16T10:40:14.660Z,100757.31
2022-08-16T10:42:55.446Z,100763.56
2022-08-16T10:45:21.847Z,100744.03
2022-08-16T10:48:02.787Z,100754.56
2022-08-16T10:50:32.370Z,100753.78
2022-08-16T10:52:59.719Z,100756.25
2022-08-16T10:55:44.083Z,100762.47
2022-08-16T10:58:16.845Z,100763.47
2022-08-16T11:00:46.326Z,100764.78
2022-08-16T11:06:00.583Z,100759.75
2022-08-16T11:08:35.841Z,100755.41
2022-08-16T11:11:11.517Z,100761.06
2022-08-16T11:13:59.049Z,100755.81
2022-08-16T11:17:02.132Z,100756.34
2022-08-16T11:19:15.578Z,100762.94
2022-08-16T11:24:42.451Z,100771.97
2022-08-16T11:27:23.982Z,100768.19
2022-08-16T11:29:59.056Z,100770.16
2022-08-16T11:32:31.335Z,100760.72
2022-08-16T11:35:14.268Z,100771.81
2022-08-16T11:40:40.819Z,100776.50
2022-08-16T11:43:12.461Z,100773.09
2022-08-16T11:45:38.824Z,100779.16
2022-08-16T11:48:09.354Z,100786.75
2022-08-16T11:50:36.056Z,100790.00
2022-08-16T11:53:04.317Z,100787.25
2022-08-16T11:55:32.205Z,100787.56
2022-08-16T11:58:00.421Z,100789.09
2022-08-16T12:00:42.676Z,100794.75
2022-08-16T12:03:15.261Z,100791.66
2022-08-16T12:05:44.817Z,100792.00
2022-08-16T12:08:12.541Z,100797.22
2022-08-16T12:10:41.108Z,100789.91
2022-08-16T12:13:10.856Z,100794.31
2022-08-16T12:15:37.916Z,100791.28
2022-08-16T12:18:05.153Z,100790.53
2022-08-16T12:20:36.439Z,100796.47
2022-08-16T12:23:03.839Z,100804.91
2022-08-16T12:25:32.160Z,100813.16
2022-08-16T12:27:58.789Z,100814.94
2022-08-16T12:30:38.632Z,100807.31
2022-08-16T12:33:07.081Z,100802.50
2022-08-16T12:35:35.600Z,100806.09
2022-08-16T12:38:38.004Z,100813.47
2022-08-16T12:40:50.900Z,100815.69
2022-08-16T12:43:23.467Z,100804.09
2022-08-16T12:45:54.189Z,100814.34
2022-08-16T12:48:44.719Z,100823.06
2022-08-16T12:51:19.967Z,100816.38
2022-08-16T12:53:52.563Z,100822.91
2022-08-16T12:56:21.855Z,100817.19
2022-08-16T12:58:52.416Z,100812.41
2022-08-16T13:01:22.449Z,100808.50
2022-08-16T13:03:50.215Z,100813.41
2022-08-16T13:06:29.395Z,100805.94
2022-08-16T13:09:17.975Z,100809.22
2022-08-16T13:12:15.955Z,100800.31
2022-08-16T13:14:43.942Z,100809.16
2022-08-16T13:17:19.121Z,100803.97
2022-08-16T13:22:36.719Z,100804.97
2022-08-16T13:25:06.419Z,100815.66
2022-08-16T13:27:34.936Z,100820.75
2022-08-16T13:30:36.312Z,100814.69
2022-08-16T13:33:12.287Z,100799.63
2022-08-16T13:35:43.380Z,100802.81
2022-08-16T13:38:11.125Z,100797.59
2022-08-16T13:40:52.968Z,100801.78
2022-08-16T13:43:23.284Z,100803.22
2022-08-16T13:45:50.568Z,100799.22
2022-08-16T13:48:21.930Z,100800.09
2022-08-16T13:50:52.728Z,100808.81
2022-08-16T13:53:24.215Z,100809.41
2022-08-16T13:55:58.480Z,100810.84
2022-08-16T13:58:37.335Z,100822.09
2022-08-16T14:01:14.018Z,100823.19
2022-08-16T14:03:41.129Z,100824.28
2022-08-16T14:06:10.922Z,100817.13
2022-08-16T14:08:42.011Z,100822.03
2022-08-16T14:11:14.458Z,100824.34
2022-08-16T14:13:42.829Z,100821.22
2022-08-16T14:16:12.681Z,100825.66
2022-08-16T14:18:50.434Z,100816.00
2022-08-16T14:21:19.887Z,100815.19
2022-08-16T14:23:52.146Z,100817.13
2022-08-16T14:26:19.777Z,100811.28
2022-08-16T14:28:46.207Z,100814.72
2022-08-16T14:31:12.644Z,100811.59
2022-08-16T14:33:41.717Z,100801.13
2022-08-16T14:36:08.484Z,100813.47
2022-08-16T14:38:37.407Z,100813.94
2022-08-16T14:41:06.943Z,100810.16
2022-08-16T14:43:37.455Z,100821.94
2022-08-16T14:46:06.588Z,100814.06
2022-08-16T14:48:34.534Z,100810.53
2022-08-16T14:51:01.438Z,100823.78
2022-08-16T14:53:28.852Z,100822.94
2022-08-16T14:55:59.026Z,100817.66
2022-08-16T14:58:34.928Z,100814.47
2022-08-16T15:01:05.789Z,100820.41
2022-08-16T15:03:33.198Z,100824.84
2022-08-16T15:06:03.994Z,100820.41
2022-08-16T15:08:36.794Z,100824.06
2022-08-16T15:11:04.840Z,100827.63
2022-08-16T15:13:31.216Z,100818.00
2022-08-16T15:16:02.464Z,100823.94
2022-08-16T15:18:31.875Z,100823.06
2022-08-16T15:20:59.370Z,100819.66
2022-08-16T15:23:25.862Z,100821.00
2022-08-16T15:26:03.484Z,100816.66
2022-08-16T15:28:32.699Z,100826.34
2022-08-16T15:31:03.231Z,100822.84
2022-08-16T15:33:32.946Z,100822.09
2022-08-16T15:36:01.055Z,100813.44
2022-08-16T15:38:57.395Z,100816.94
2022-08-16T15:41:34.200Z,100808.44
2022-08-16T15:44:05.328Z,100822.66
2022-08-16T15:46:54.659Z,100820.69
2022-08-16T15:49:37.102Z,100819.44
2022-08-16T15:52:12.707Z,100826.41
2022-08-16T15:54:52.493Z,100823.53
2022-08-16T15:57:22.028Z,100833.16
2022-08-16T15:59:52.952Z,100821.66
2022-08-16T16:02:29.626Z,100824.00
2022-08-16T16:05:04.426Z,100826.34
2022-08-16T16:07:32.130Z,100823.41
2022-08-16T16:10:01.894Z,100825.84
2022-08-16T16:12:51.715Z,100824.94
2022-08-16T16:15:18.317Z,100823.53
2022-08-16T16:17:50.637Z,100827.56
2022-08-16T16:20:17.836Z,100832.59
2022-08-16T16:22:44.527Z,100834.38
2022-08-16T16:25:11.500Z,100837.94
2022-08-16T16:27:37.971Z,100835.88
2022-08-16T16:30:32.756Z,100832.19
2022-08-16T16:32:52.132Z,100834.38
2022-08-16T16:35:18.732Z,100831.44
2022-08-16T16:37:51.725Z,100832.63
2022-08-16T16:40:23.805Z,100827.28
2022-08-16T16:42:59.906Z,100832.97
2022-08-16T16:45:34.570Z,100834.84
2022-08-16T16:48:11.671Z,100835.66
2022-08-16T16:50:40.433Z,100835.94
2022-08-16T16:53:17.143Z,100838.16
2022-08-16T16:55:47.680Z,100838.69
2022-08-16T16:58:40.492Z,100835.13
2022-08-16T17:01:09.785Z,100834.41
2022-08-16T17:03:36.624Z,100831.72
2022-08-16T17:06:09.129Z,100828.78
2022-08-16T17:08:37.749Z,100829.16
2022-08-16T17:11:08.239Z,100847.25
2022-08-16T17:13:34.979Z,100837.81
2022-08-16T17:16:01.508Z,100839.22
2022-08-16T17:19:21.796Z,100842.78
2022-08-16T17:21:16.411Z,100846.59
2022-08-16T17:23:58.922Z,100835.53
2022-08-16T17:26:30.131Z,100845.63
2022-08-16T17:29:02.458Z,100839.94
2022-08-16T17:31:40.815Z,100844.28
2022-08-16T17:34:31.077Z,100841.63
2022-08-16T17:36:59.533Z,100840.34
2022-08-16T17:39:29.481Z,100842.25
2022-08-16T17:41:57.203Z,100837.69
2022-08-16T17:44:23.653Z,100834.47
2022-08-16T17:46:52.396Z,100827.19
2022-08-16T17:49:19.806Z,100834.75
2022-08-16T17:51:46.260Z,100841.00
2022-08-16T17:54:16.992Z,100837.47
2022-08-16T17:57:00.481Z,100843.16
2022-08-16T17:59:28.004Z,100845.03
2022-08-16T18:01:54.841Z,100838.03
2022-08-16T18:04:49.908Z,100846.66
2022-08-16T18:07:08.437Z,100839.06
2022-08-16T18:09:36.589Z,100847.72
2022-08-16T18:12:24.021Z,100847.16
2022-08-16T18:15:10.378Z,100851.47
2022-08-16T18:17:37.157Z,100845.78
2022-08-16T18:20:27.873Z,100853.88
2022-08-16T18:22:54.421Z,100851.97
2022-08-16T18:25:21.071Z,100859.97
2022-08-16T18:27:47.472Z,100849.41
2022-08-16T18:30:17.531Z,100853.69
2022-08-16T18:32:48.650Z,100855.53
2022-08-16T18:35:20.387Z,100860.59
2022-08-16T18:37:47.151Z,100865.41
2022-08-16T18:40:15.275Z,100863.72
2022-08-16T18:43:03.780Z,100859.09
2022-08-16T18:45:35.706Z,100862.25
2022-08-16T18:48:04.974Z,100867.84
2022-08-16T18:51:03.110Z,100866.38
2022-08-16T18:53:20.818Z,100868.47
2022-08-16T18:55:48.442Z,100872.38
2022-08-16T18:58:15.638Z,100865.56
2022-08-16T19:00:56.375Z,100877.41
2022-08-16T19:03:27.378Z,100867.88
2022-08-16T19:06:06.448Z,100877.25
2022-08-16T19:08:37.545Z,100882.22
2022-08-16T19:11:06.560Z,100878.09
2022-08-16T19:13:34.524Z,100883.13
2022-08-16T19:16:03.688Z,100879.78
2022-08-16T19:18:36.398Z,100890.19
2022-08-16T19:21:04.525Z,100899.50
2022-08-16T19:23:34.344Z,100897.88
2022-08-16T19:26:06.395Z,100898.63
2022-08-16T19:28:57.835Z,100904.50
2022-08-16T19:31:26.350Z,100910.38
2022-08-16T19:33:56.345Z,100910.00
2022-08-16T19:36:30.954Z,100905.78
2022-08-16T19:39:04.334Z,100907.50
2022-08-16T19:41:31.631Z,100917.91
2022-08-16T19:43:58.054Z,100922.97
2022-08-16T19:46:24.552Z,100929.16
2022-08-16T19:48:53.644Z,100925.66
2022-08-16T19:51:20.080Z,100931.19
2022-08-16T19:53:46.748Z,100942.75
2022-08-16T19:56:13.203Z,100951.63
2022-08-16T19:58:50.990Z,100957.00
2022-08-16T20:01:24.917Z,100960.81
2022-08-16T20:03:51.916Z,100967.09
2022-08-16T20:06:37.607Z,100970.38
2022-08-16T20:09:05.458Z,100981.94
2022-08-16T20:11:31.914Z,100967.22
2022-08-16T20:13:59.230Z,100974.19
2022-08-16T20:16:26.006Z,100962.13
2022-08-16T20:18:52.399Z,100967.78
2022-08-16T20:21:19.427Z,100970.72
2022-08-16T20:23:46.003Z,100972.00
2022-08-16T20:26:12.407Z,100975.75
2022-08-16T20:28:52.694Z,100977.28
2022-08-16T20:31:21.575Z,100986.94
2022-08-16T20:33:48.098Z,100986.09
2022-08-16T20:36:16.684Z,100987.13
2022-08-16T20:38:46.888Z,100989.00
2022-08-16T20:41:14.250Z,100984.59
2022-08-16T20:43:40.821Z,100991.03
2022-08-16T20:46:07.718Z,100987.88
2022-08-16T20:48:34.163Z,100982.97
2022-08-16T20:51:00.635Z,100978.91
2022-08-16T20:53:27.509Z,100979.16
2022-08-16T20:55:53.995Z,100973.19
2022-08-16T20:58:20.636Z,100981.25
2022-08-16T21:00:47.240Z,100983.38
2022-08-16T21:03:14.124Z,100992.97
2022-08-16T21:05:41.275Z,101004.53
2022-08-16T21:08:52.714Z,101008.66
2022-08-16T21:10:56.491Z,101013.13
2022-08-16T21:13:25.832Z,100998.31
2022-08-16T21:15:52.651Z,100991.78
2022-08-16T21:18:19.104Z,100988.19
2022-08-16T21:20:45.535Z,100993.72
2022-08-16T21:23:11.922Z,100987.78
2022-08-16T21:25:40.212Z,100996.06
2022-08-16T21:28:41.050Z,100991.75
2022-08-16T21:31:04.221Z,100993.84
2022-08-16T21:33:30.665Z,100995.75
2022-08-16T21:35:57.049Z,100992.91
2022-08-16T21:38:28.612Z,100991.28
2022-08-16T21:40:57.798Z,100997.25
2022-08-16T21:43:25.347Z,100985.34
2022-08-16T21:45:55.425Z,100992.59
2022-08-16T21:48:33.984Z,100984.31
2022-08-16T21:51:01.376Z,100985.41
2022-08-16T21:53:29.428Z,100981.56
2022-08-16T21:55:56.902Z,100983.44
2022-08-16T21:58:24.472Z,100986.81
2022-08-16T22:00:51.450Z,100978.53
2022-08-16T22:03:18.355Z,100987.88
2022-08-16T22:06:00.127Z,100995.69
2022-08-16T22:08:34.101Z,100995.25
2022-08-16T22:11:06.632Z,100984.50
2022-08-16T22:13:34.951Z,100990.69
2022-08-16T22:16:03.986Z,100991.75
2022-08-16T22:18:30.379Z,100988.22
2022-08-16T22:20:56.811Z,100984.41
2022-08-16T22:23:25.803Z,100987.44
2022-08-16T22:25:54.187Z,100993.88
2022-08-16T22:28:22.550Z,100994.09
2022-08-16T22:30:49.357Z,100998.88
2022-08-16T22:33:19.298Z,101000.50
2022-08-16T22:35:52.827Z,100996.78
2022-08-16T22:38:53.780Z,100996.91
2022-08-16T22:41:06.800Z,100995.03
2022-08-16T22:43:33.507Z,100993.06
2022-08-16T22:46:00.517Z,100986.78
2022-08-16T22:48:26.987Z,100995.06
2022-08-16T22:50:53.474Z,100986.53
2022-08-16T22:53:20.246Z,100995.06
2022-08-16T22:55:46.990Z,100995.53
2022-08-16T22:58:13.861Z,100981.31
2022-08-16T23:00:40.711Z,100986.09
2022-08-16T23:03:10.196Z,100986.31
2022-08-16T23:05:56.050Z,100995.88
2022-08-16T23:08:32.188Z,100988.84
2022-08-16T23:11:06.182Z,100990.16
2022-08-16T23:13:32.957Z,100993.06
2022-08-16T23:16:11.151Z,101000.06
2022-08-16T23:18:39.596Z,100998.66
2022-08-16T23:21:09.629Z,100996.81
2022-08-16T23:23:37.399Z,100997.16
2022-08-16T23:26:44.065Z,100997.97
2022-08-16T23:28:51.362Z,100995.75
2022-08-16T23:31:17.948Z,100982.09
2022-08-16T23:33:44.747Z,100979.44
2022-08-16T23:36:11.890Z,100982.69
2022-08-16T23:38:39.778Z,100983.97
2022-08-16T23:41:09.144Z,100980.00
2022-08-16T23:43:43.461Z,100979.91
2022-08-16T23:46:17.427Z,100967.09
2022-08-16T23:50:01.304Z,100961.47
2022-08-16T23:51:32.203Z,100967.78
2022-08-16T23:53:58.922Z,100965.59
2022-08-16T23:56:25.818Z,100969.88
2022-08-16T23:58:54.418Z,100967.91
